sensor_id;sensor_type;location;lat;lon;timestamp;pressure;altitude;pressure_sealevel;temperature;humidity
48563;BME280;34981;49.104;11.396;2023-11-18T00:01:55;99679.81;;;2.96;100.00
48563;BME280;34981;49.104;11.396;2023-11-18T00:04:22;99690.31;;;2.97;100.00
48563;BME280;34981;49.104;11.396;2023-11-18T00:06:50;99693.94;;;2.96;100.00
48563;BME280;34981;49.104;11.396;2023-11-18T00:09:17;99692.13;;;2.97;100.00
48563;BME280;34981;49.104;11.396;2023-11-18T00:11:44;99695.63;;;2.97;100.00
48563;BME280;34981;49.104;11.396;2023-11-18T00:14:12;99692.50;;;2.92;100.00
48563;BME280;34981;49.104;11.396;2023-11-18T00:16:40;99694.06;;;2.95;100.00
48563;BME280;34981;49.104;11.396;2023-11-18T00:19:07;99701.91;;;2.96;100.00
48563;BME280;34981;49.104;11.396;2023-11-18T00:21:36;99704.69;;;2.95;100.00
48563;BME280;34981;49.104;11.396;2023-11-18T00:24:03;99705.94;;;2.91;100.00
48563;BME280;34981;49.104;11.396;2023-11-18T00:26:32;99701.59;;;2.90;100.00
48563;BME280;34981;49.104;11.396;2023-11-18T00:28:59;99691.00;;;2.79;100.00
48563;BME280;34981;49.104;11.396;2023-11-18T00:31:27;99707.16;;;2.87;100.00
48563;BME280;34981;49.104;11.396;2023-11-18T00:33:55;99707.75;;;2.90;100.00
48563;BME280;34981;49.104;11.396;2023-11-18T00:36:22;99693.94;;;2.76;100.00
48563;BME280;34981;49.104;11.396;2023-11-18T00:38:49;99687.44;;;2.68;100.00
48563;BME280;34981;49.104;11.396;2023-11-18T00:41:16;99686.72;;;2.66;100.00
48563;BME280;34981;49.104;11.396;2023-11-18T00:43:44;99694.78;;;2.76;100.00
48563;BME280;34981;49.104;11.396;2023-11-18T00:46:11;99702.03;;;2.74;100.00
48563;BME280;34981;49.104;11.396;2023-11-18T00:48:39;99695.88;;;2.73;100.00
48563;BME280;34981;49.104;11.396;2023-11-18T00:51:06;99695.03;;;2.73;100.00
48563;BME280;34981;49.104;11.396;2023-11-18T00:53:33;99705.66;;;2.73;100.00
48563;BME280;34981;49.104;11.396;2023-11-18T00:56:01;99696.28;;;2.69;100.00
48563;BME280;34981;49.104;11.396;2023-11-18T00:58:28;99685.16;;;2.64;100.00
48563;BME280;34981;49.104;11.396;2023-11-18T01:00:56;99683.50;;;2.63;100.00
48563;BME280;34981;49.104;11.396;2023-11-18T01:03:23;99670.59;;;2.58;100.00
48563;BME280;34981;49.104;11.396;2023-11-18T01:05:52;99673.13;;;2.60;100.00
48563;BME280;34981;49.104;11.396;2023-11-18T01:08:19;99674.34;;;2.56;100.00
48563;BME280;34981;49.104;11.396;2023-11-18T01:10:46;99671.94;;;2.53;100.00
48563;BME280;34981;49.104;11.396;2023-11-18T01:13:14;99682.06;;;2.59;100.00
48563;BME280;34981;49.104;11.396;2023-11-18T01:15:41;99681.81;;;2.62;100.00
48563;BME280;34981;49.104;11.396;2023-11-18T01:18:08;99690.22;;;2.67;100.00
48563;BME280;34981;49.104;11.396;2023-11-18T01:20:35;99691.66;;;2.71;100.00
48563;BME280;34981;49.104;11.396;2023-11-18T01:23:04;99695.16;;;2.71;100.00
48563;BME280;34981;49.104;11.396;2023-11-18T01:25:32;99694.31;;;2.71;100.00
48563;BME280;34981;49.104;11.396;2023-11-18T01:28:00;99687.34;;;2.70;100.00
48563;BME280;34981;49.104;11.396;2023-11-18T01:30:27;99691.06;;;2.67;100.00
48563;BME280;34981;49.104;11.396;2023-11-18T01:32:54;99687.97;;;2.62;100.00
48563;BME280;34981;49.104;11.396;2023-11-18T01:35:21;99686.00;;;2.64;100.00
48563;BME280;34981;49.104;11.396;2023-11-18T01:37:49;99686.00;;;2.64;100.00
48563;BME280;34981;49.104;11.396;2023-11-18T01:40:16;99690.63;;;2.62;100.00
48563;BME280;34981;49.104;11.396;2023-11-18T01:42:44;99689.25;;;2.68;100.00
48563;BME280;34981;49.104;11.396;2023-11-18T01:45:13;99697.22;;;2.68;100.00
48563;BME280;34981;49.104;11.396;2023-11-18T01:47:41;99689.25;;;2.68;100.00
48563;BME280;34981;49.104;11.396;2023-11-18T01:50:09;99686.59;;;2.68;100.00
48563;BME280;34981;49.104;11.396;2023-11-18T01:52:38;99684.19;;;2.65;100.00
48563;BME280;34981;49.104;11.396;2023-11-18T01:55:07;99685.88;;;2.66;100.00
48563;BME280;34981;49.104;11.396;2023-11-18T01:57:34;99694.69;;;2.66;100.00
48563;BME280;34981;49.104;11.396;2023-11-18T02:00:02;99686.84;;;2.65;100.00
48563;BME280;34981;49.104;11.396;2023-11-18T02:02:39;99685.88;;;2.66;100.00
48563;BME280;34981;49.104;11.396;2023-11-18T02:05:07;99684.78;;;2.68;100.00
48563;BME280;34981;49.104;11.396;2023-11-18T02:07:35;99668.97;;;2.67;100.00
48563;BME280;34981;49.104;11.396;2023-11-18T02:10:04;99663.22;;;2.62;100.00
48563;BME280;34981;49.104;11.396;2023-11-18T02:15:23;99658.59;;;2.64;100.00
48563;BME280;34981;49.104;11.396;2023-11-18T02:17:52;99668.53;;;2.62;100.00
48563;BME280;34981;49.104;11.396;2023-11-18T02:20:20;99667.69;;;2.61;100.00
48563;BME280;34981;49.104;11.396;2023-11-18T02:22:48;99670.91;;;2.65;100.00
48563;BME280;34981;49.104;11.396;2023-11-18T02:25:16;99680.44;;;2.67;100.00
48563;BME280;34981;49.104;11.396;2023-11-18T02:27:45;99681.28;;;2.68;100.00
48563;BME280;34981;49.104;11.396;2023-11-18T02:30:16;99677.66;;;2.69;100.00
48563;BME280;34981;49.104;11.396;2023-11-18T02:32:47;99681.19;;;2.69;100.00
48563;BME280;34981;49.104;11.396;2023-11-18T02:35:23;99678.38;;;2.71;100.00
48563;BME280;34981;49.104;11.396;2023-11-18T02:37:52;99661.00;;;2.67;100.00
48563;BME280;34981;49.104;11.396;2023-11-18T02:40:30;99667.16;;;2.67;100.00
48563;BME280;34981;49.104;11.396;2023-11-18T02:42:59;99675.13;;;2.67;100.00
48563;BME280;34981;49.104;11.396;2023-11-18T02:45:30;99679.47;;;2.68;100.00
48563;BME280;34981;49.104;11.396;2023-11-18T02:47:59;99674.28;;;2.67;100.00
48563;BME280;34981;49.104;11.396;2023-11-18T02:50:26;99668.97;;;2.67;100.00
48563;BME280;34981;49.104;11.396;2023-11-18T02:52:54;99671.50;;;2.68;100.00
48563;BME280;34981;49.104;11.396;2023-11-18T02:58:25;99650.38;;;2.67;100.00
48563;BME280;34981;49.104;11.396;2023-11-18T03:00:52;99667.28;;;2.66;100.00
48563;BME280;34981;49.104;11.396;2023-11-18T03:03:20;99671.63;;;2.67;100.00
48563;BME280;34981;49.104;11.396;2023-11-18T03:05:48;99661.41;;;2.62;100.00
48563;BME280;34981;49.104;11.396;2023-11-18T03:08:16;99662.25;;;2.63;100.00
48563;BME280;34981;49.104;11.396;2023-11-18T03:10:43;99670.06;;;2.64;100.00
48563;BME280;34981;49.104;11.396;2023-11-18T03:13:11;99664.75;;;2.64;100.00
48563;BME280;34981;49.104;11.396;2023-11-18T03:15:41;99660.81;;;2.59;100.00
48563;BME280;34981;49.104;11.396;2023-11-18T03:18:08;99652.50;;;2.52;100.00
48563;BME280;34981;49.104;11.396;2023-11-18T03:20:36;99651.91;;;2.49;100.00
48563;BME280;34981;49.104;11.396;2023-11-18T03:23:03;99633.00;;;2.42;100.00
48563;BME280;34981;49.104;11.396;2023-11-18T03:25:30;99628.59;;;2.31;100.00
48563;BME280;34981;49.104;11.396;2023-11-18T03:27:57;99627.63;;;2.32;100.00
48563;BME280;34981;49.104;11.396;2023-11-18T03:30:25;99636.16;;;2.36;100.00
48563;BME280;34981;49.104;11.396;2023-11-18T03:32:52;99642.31;;;2.37;100.00
48563;BME280;34981;49.104;11.396;2023-11-18T03:35:19;99638.25;;;2.32;100.00
48563;BME280;34981;49.104;11.396;2023-11-18T03:37:46;99631.25;;;2.31;100.00
48563;BME280;34981;49.104;11.396;2023-11-18T03:40:14;99632.63;;;2.26;100.00
48563;BME280;34981;49.104;11.396;2023-11-18T03:42:42;99629.59;;;2.19;100.00
48563;BME280;34981;49.104;11.396;2023-11-18T03:45:09;99615.16;;;2.12;100.00
48563;BME280;34981;49.104;11.396;2023-11-18T03:47:37;99614.56;;;2.09;100.00
48563;BME280;34981;49.104;11.396;2023-11-18T03:50:04;99612.31;;;2.04;100.00
48563;BME280;34981;49.104;11.396;2023-11-18T03:52:32;99610.84;;;2.00;100.00
48563;BME280;34981;49.104;11.396;2023-11-18T03:55:05;99611.47;;;2.04;100.00
48563;BME280;34981;49.104;11.396;2023-11-18T03:57:32;99603.34;;;2.05;100.00
48563;BME280;34981;49.104;11.396;2023-11-18T03:59:59;99607.69;;;2.06;100.00
48563;BME280;34981;49.104;11.396;2023-11-18T04:02:27;99609.66;;;2.04;100.00
48563;BME280;34981;49.104;11.396;2023-11-18T04:04:56;99606.50;;;1.99;100.00
48563;BME280;34981;49.104;11.396;2023-11-18T04:07:23;99611.13;;;1.97;100.00
48563;BME280;34981;49.104;11.396;2023-11-18T04:09:50;99609.16;;;1.99;100.00
48563;BME280;34981;49.104;11.396;2023-11-18T04:12:17;99611.13;;;1.97;100.00
48563;BME280;34981;49.104;11.396;2023-11-18T04:14:45;99610.63;;;2.03;100.00
48563;BME280;34981;49.104;11.396;2023-11-18T04:17:12;99607.69;;;2.06;100.00
48563;BME280;34981;49.104;11.396;2023-11-18T04:19:39;99617.81;;;2.12;100.00
48563;BME280;34981;49.104;11.396;2023-11-18T04:22:06;99617.56;;;2.15;100.00
48563;BME280;34981;49.104;11.396;2023-11-18T04:24:33;99611.28;;;2.16;100.00
48563;BME280;34981;49.104;11.396;2023-11-18T04:27:01;99619.25;;;2.16;100.00
48563;BME280;34981;49.104;11.396;2023-11-18T04:29:29;99609.84;;;2.12;100.00
48563;BME280;34981;49.104;11.396;2023-11-18T04:31:57;99612.38;;;2.14;100.00
48563;BME280;34981;49.104;11.396;2023-11-18T04:34:24;99628.38;;;2.23;100.00
48563;BME280;34981;49.104;11.396;2023-11-18T04:36:52;99629.22;;;2.24;100.00
48563;BME280;34981;49.104;11.396;2023-11-18T04:39:19;99618.00;;;2.20;100.00
48563;BME280;34981;49.104;11.396;2023-11-18T04:41:47;99621.38;;;2.22;100.00
48563;BME280;34981;49.104;11.396;2023-11-18T04:44:14;99607.78;;;2.16;100.00
48563;BME280;34981;49.104;11.396;2023-11-18T04:46:43;99606.94;;;2.15;100.00
48563;BME280;34981;49.104;11.396;2023-11-18T04:49:12;99605.13;;;2.16;100.00
48563;BME280;34981;49.104;11.396;2023-11-18T04:51:39;99608.63;;;2.16;100.00
48563;BME280;34981;49.104;11.396;2023-11-18T04:54:07;99612.97;;;2.17;100.00
48563;BME280;34981;49.104;11.396;2023-11-18T04:56:35;99614.66;;;2.18;100.00
48563;BME280;34981;49.104;11.396;2023-11-18T04:59:04;99614.66;;;2.18;100.00
48563;BME280;34981;49.104;11.396;2023-11-18T05:01:32;99628.78;;;2.19;100.00
48563;BME280;34981;49.104;11.396;2023-11-18T05:04:00;99628.63;;;2.20;100.00
48563;BME280;34981;49.104;11.396;2023-11-18T05:06:27;99612.69;;;2.20;100.00
48563;BME280;34981;49.104;11.396;2023-11-18T05:08:54;99608.50;;;2.18;100.00
48563;BME280;34981;49.104;11.396;2023-11-18T05:11:21;99593.69;;;2.15;100.00
48563;BME280;34981;49.104;11.396;2023-11-18T05:13:49;99594.91;;;2.11;100.00
48563;BME280;34981;49.104;11.396;2023-11-18T05:16:16;99599.63;;;2.08;100.00
48563;BME280;34981;49.104;11.396;2023-11-18T05:18:43;99614.91;;;2.15;100.00
48563;BME280;34981;49.104;11.396;2023-11-18T05:21:11;99612.38;;;2.14;100.00
48563;BME280;34981;49.104;11.396;2023-11-18T05:23:38;99627.09;;;2.18;100.00
48563;BME280;34981;49.104;11.396;2023-11-18T05:26:05;99628.63;;;2.20;100.00
48563;BME280;34981;49.104;11.396;2023-11-18T05:28:33;99629.34;;;2.22;100.00
48563;BME280;34981;49.104;11.396;2023-11-18T05:31:01;99634.41;;;2.25;100.00
48563;BME280;34981;49.104;11.396;2023-11-18T05:33:32;99637.06;;;2.25;100.00
48563;BME280;34981;49.104;11.396;2023-11-18T05:36:01;99638.03;;;2.24;100.00
48563;BME280;34981;49.104;11.396;2023-11-18T05:38:32;99639.25;;;2.20;100.00
48563;BME280;34981;49.104;11.396;2023-11-18T05:41:02;99629.75;;;2.18;100.00
48563;BME280;34981;49.104;11.396;2023-11-18T05:43:31;99635.91;;;2.18;100.00
48563;BME280;34981;49.104;11.396;2023-11-18T05:46:08;99640.22;;;2.19;100.00
48563;BME280;34981;49.104;11.396;2023-11-18T05:48:57;99647.47;;;2.17;100.00
48563;BME280;34981;49.104;11.396;2023-11-18T05:51:28;99653.16;;;2.13;100.00
48563;BME280;34981;49.104;11.396;2023-11-18T05:53:56;99662.91;;;2.12;100.00
48563;BME280;34981;49.104;11.396;2023-11-18T05:56:23;99672.22;;;2.18;100.00
48563;BME280;34981;49.104;11.396;2023-11-18T05:58:51;99673.06;;;2.18;100.00
48563;BME280;34981;49.104;11.396;2023-11-18T06:01:22;99673.63;;;2.22;100.00
48563;BME280;34981;49.104;11.396;2023-11-18T06:03:50;99681.47;;;2.23;100.00
48563;BME280;34981;49.104;11.396;2023-11-18T06:06:18;99678.09;;;2.21;100.00
48563;BME280;34981;49.104;11.396;2023-11-18T06:08:50;99677.00;;;2.24;100.00
48563;BME280;34981;49.104;11.396;2023-11-18T06:11:18;99685.81;;;2.24;100.00
48563;BME280;34981;49.104;11.396;2023-11-18T06:13:47;99687.63;;;2.24;100.00
48563;BME280;34981;49.104;11.396;2023-11-18T06:16:15;99685.09;;;2.22;100.00
48563;BME280;34981;49.104;11.396;2023-11-18T06:18:43;99684.38;;;2.20;100.00
48563;BME280;34981;49.104;11.396;2023-11-18T06:21:21;99689.84;;;2.19;100.00
48563;BME280;34981;49.104;11.396;2023-11-18T06:23:51;99688.97;;;2.18;100.00
48563;BME280;34981;49.104;11.396;2023-11-18T06:26:18;99696.09;;;2.18;100.00
48563;BME280;34981;49.104;11.396;2023-11-18T06:28:47;99708.41;;;2.19;100.00
48563;BME280;34981;49.104;11.396;2023-11-18T06:31:14;99704.66;;;2.21;100.00
48563;BME280;34981;49.104;11.396;2023-11-18T06:33:42;99703.78;;;2.21;100.00
48563;BME280;34981;49.104;11.396;2023-11-18T06:38:40;99711.41;;;2.25;100.00
48563;BME280;34981;49.104;11.396;2023-11-18T06:41:07;99713.34;;;2.23;100.00
48563;BME280;34981;49.104;11.396;2023-11-18T06:43:43;99714.19;;;2.24;100.00
48563;BME280;34981;49.104;11.396;2023-11-18T06:46:24;99713.34;;;2.23;100.00
48563;BME280;34981;49.104;11.396;2023-11-18T06:48:52;99725.88;;;2.21;100.00
48563;BME280;34981;49.104;11.396;2023-11-18T06:51:22;99724.44;;;2.17;100.00
48563;BME280;34981;49.104;11.396;2023-11-18T06:53:51;99729.50;;;2.20;100.00
48563;BME280;34981;49.104;11.396;2023-11-18T06:56:18;99738.44;;;2.19;100.00
48563;BME280;34981;49.104;11.396;2023-11-18T06:58:46;99745.19;;;2.23;100.00
48563;BME280;34981;49.104;11.396;2023-11-18T07:01:13;99747.00;;;2.23;100.00
48563;BME280;34981;49.104;11.396;2023-11-18T07:03:42;99755.81;;;2.23;100.00
48563;BME280;34981;49.104;11.396;2023-11-18T07:06:09;99745.41;;;2.20;100.00
48563;BME280;34981;49.104;11.396;2023-11-18T07:08:37;99749.88;;;2.20;100.00
48563;BME280;34981;49.104;11.396;2023-11-18T07:11:04;99754.63;;;2.16;100.00
48563;BME280;34981;49.104;11.396;2023-11-18T07:13:33;99747.16;;;2.10;100.00
48563;BME280;34981;49.104;11.396;2023-11-18T07:16:03;99752.69;;;2.07;100.00
48563;BME280;34981;49.104;11.396;2023-11-18T07:18:32;99765.13;;;2.07;100.00
48563;BME280;34981;49.104;11.396;2023-11-18T07:21:01;99772.97;;;2.08;100.00
48563;BME280;34981;49.104;11.396;2023-11-18T07:23:31;99786.47;;;2.16;100.00
48563;BME280;34981;49.104;11.396;2023-11-18T07:25:59;99809.25;;;2.30;100.00
48563;BME280;34981;49.104;11.396;2023-11-18T07:28:27;99812.75;;;2.30;100.00
48563;BME280;34981;49.104;11.396;2023-11-18T07:30:54;99823.38;;;2.30;100.00
48563;BME280;34981;49.104;11.396;2023-11-18T07:33:21;99834.84;;;2.31;100.00
48563;BME280;34981;49.104;11.396;2023-11-18T07:35:49;99838.06;;;2.34;100.00
48563;BME280;34981;49.104;11.396;2023-11-18T07:38:16;99856.19;;;2.41;100.00
48563;BME280;34981;49.104;11.396;2023-11-18T07:40:47;99868.72;;;2.50;100.00
48563;BME280;34981;49.104;11.396;2023-11-18T07:43:15;99865.38;;;2.48;100.00
48563;BME280;34981;49.104;11.396;2023-11-18T07:45:42;99865.38;;;2.48;100.00
48563;BME280;34981;49.104;11.396;2023-11-18T07:48:10;99869.81;;;2.47;100.00
48563;BME280;34981;49.104;11.396;2023-11-18T07:50:39;99865.81;;;2.42;100.00
48563;BME280;34981;49.104;11.396;2023-11-18T07:53:11;99870.28;;;2.41;100.00
48563;BME280;34981;49.104;11.396;2023-11-18T07:55:38;99884.66;;;2.50;100.00
48563;BME280;34981;49.104;11.396;2023-11-18T07:58:09;99909.16;;;2.53;100.00
48563;BME280;34981;49.104;11.396;2023-11-18T08:00:40;99927.63;;;2.66;100.00
48563;BME280;34981;49.104;11.396;2023-11-18T08:03:11;99945.03;;;2.70;100.00
48563;BME280;34981;49.104;11.396;2023-11-18T08:05:43;99945.72;;;2.72;100.00
48563;BME280;34981;49.104;11.396;2023-11-18T08:08:13;99959.97;;;2.82;100.00
48563;BME280;34981;49.104;11.396;2023-11-18T08:10:41;99978.94;;;2.89;100.00
48563;BME280;34981;49.104;11.396;2023-11-18T08:13:09;100001.50;;;2.94;100.00
48563;BME280;34981;49.104;11.396;2023-11-18T08:15:41;99995.69;;;3.00;100.00
48563;BME280;34981;49.104;11.396;2023-11-18T08:18:08;99958.47;;;3.00;100.00
48563;BME280;34981;49.104;11.396;2023-11-18T08:20:37;99991.84;;;3.04;100.00
48563;BME280;34981;49.104;11.396;2023-11-18T08:23:04;100015.38;;;3.09;100.00
48563;BME280;34981;49.104;11.396;2023-11-18T08:25:32;100034.59;;;3.12;100.00
48563;BME280;34981;49.104;11.396;2023-11-18T08:28:07;100050.06;;;3.19;100.00
48563;BME280;34981;49.104;11.396;2023-11-18T08:30:36;100059.13;;;3.16;100.00
48563;BME280;34981;49.104;11.396;2023-11-18T08:33:04;100044.28;;;3.02;100.00
48563;BME280;34981;49.104;11.396;2023-11-18T08:35:32;100062.63;;;3.17;100.00
48563;BME280;34981;49.104;11.396;2023-11-18T08:38:00;100037.50;;;3.09;100.00
48563;BME280;34981;49.104;11.396;2023-11-18T08:40:28;100034.72;;;3.00;100.00
48563;BME280;34981;49.104;11.396;2023-11-18T08:42:56;100056.97;;;3.10;100.00
48563;BME280;34981;49.104;11.396;2023-11-18T08:45:27;100089.09;;;3.18;100.00
48563;BME280;34981;49.104;11.396;2023-11-18T08:47:56;100124.03;;;3.36;100.00
48563;BME280;34981;49.104;11.396;2023-11-18T08:50:24;100148.19;;;3.44;100.00
48563;BME280;34981;49.104;11.396;2023-11-18T08:52:52;100167.81;;;3.43;100.00
48563;BME280;34981;49.104;11.396;2023-11-18T08:55:27;100156.06;;;3.34;100.00
48563;BME280;34981;49.104;11.396;2023-11-18T08:58:10;100165.59;;;3.37;100.00
48563;BME280;34981;49.104;11.396;2023-11-18T09:00:50;100166.81;;;3.33;100.00
48563;BME280;34981;49.104;11.396;2023-11-18T09:03:22;100178.91;;;3.37;100.00
48563;BME280;34981;49.104;11.396;2023-11-18T09:05:56;100198.88;;;3.42;100.00
48563;BME280;34981;49.104;11.396;2023-11-18T09:08:24;100217.13;;;3.47;100.00
48563;BME280;34981;49.104;11.396;2023-11-18T09:10:52;100231.16;;;3.49;100.00
48563;BME280;34981;49.104;11.396;2023-11-18T09:13:21;100258.72;;;3.59;100.00
48563;BME280;34981;49.104;11.396;2023-11-18T09:15:49;100286.78;;;3.63;100.00
48563;BME280;34981;49.104;11.396;2023-11-18T09:18:16;100315.97;;;3.65;100.00
48563;BME280;34981;49.104;11.396;2023-11-18T09:20:45;100336.13;;;3.67;100.00
48563;BME280;34981;49.104;11.396;2023-11-18T09:23:14;100355.28;;;3.72;100.00
48563;BME280;34981;49.104;11.396;2023-11-18T09:25:42;100362.41;;;3.72;100.00
48563;BME280;34981;49.104;11.396;2023-11-18T09:28:16;100377.78;;;3.79;100.00
48563;BME280;34981;49.104;11.396;2023-11-18T09:30:45;100410.84;;;3.99;100.00
48563;BME280;34981;49.104;11.396;2023-11-18T09:33:20;100452.63;;;4.21;100.00
48563;BME280;34981;49.104;11.396;2023-11-18T09:38:27;100497.09;;;4.43;100.00
48563;BME280;34981;49.104;11.396;2023-11-18T09:40:55;100524.84;;;4.51;100.00
48563;BME280;34981;49.104;11.396;2023-11-18T09:43:23;100528.84;;;4.57;100.00
48563;BME280;34981;49.104;11.396;2023-11-18T09:45:54;100529.59;;;4.59;100.00
48563;BME280;34981;49.104;11.396;2023-11-18T09:48:22;100546.91;;;4.64;100.00
48563;BME280;34981;49.104;11.396;2023-11-18T09:50:52;100537.69;;;4.57;100.00
48563;BME280;34981;49.104;11.396;2023-11-18T09:53:20;100524.59;;;4.54;100.00
48563;BME280;34981;49.104;11.396;2023-11-18T09:55:52;100525.34;;;4.56;100.00
48563;BME280;34981;49.104;11.396;2023-11-18T09:58:30;100537.59;;;4.59;100.00
48563;BME280;34981;49.104;11.396;2023-11-18T10:01:02;100528.75;;;4.58;100.00
48563;BME280;34981;49.104;11.396;2023-11-18T10:03:30;100529.72;;;4.57;100.00
48563;BME280;34981;49.104;11.396;2023-11-18T10:05:57;100528.47;;;4.61;100.00
48563;BME280;34981;49.104;11.396;2023-11-18T10:08:24;100535.53;;;4.62;100.00
48563;BME280;34981;49.104;11.396;2023-11-18T10:10:53;100539.50;;;4.68;100.00
48563;BME280;34981;49.104;11.396;2023-11-18T10:13:32;100558.31;;;4.78;100.00
48563;BME280;34981;49.104;11.396;2023-11-18T10:16:01;100558.94;;;4.81;100.00
48563;BME280;34981;49.104;11.396;2023-11-18T10:18:31;100548.13;;;4.72;100.00
48563;BME280;34981;49.104;11.396;2023-11-18T10:21:03;100532.88;;;4.74;100.00
48563;BME280;34981;49.104;11.396;2023-11-18T10:23:38;100526.31;;;4.78;100.00
48563;BME280;34981;49.104;11.396;2023-11-18T10:26:06;100518.22;;;4.79;100.00
48563;BME280;34981;49.104;11.396;2023-11-18T10:28:35;100504.88;;;4.79;100.00
48563;BME280;34981;49.104;11.396;2023-11-18T10:31:05;100494.81;;;4.83;100.00
48563;BME280;34981;49.104;11.396;2023-11-18T10:33:37;100483.28;;;4.82;100.00
48563;BME280;34981;49.104;11.396;2023-11-18T10:36:05;100477.84;;;4.84;100.00
48563;BME280;34981;49.104;11.396;2023-11-18T10:38:39;100448.88;;;4.79;100.00
48563;BME280;34981;49.104;11.396;2023-11-18T10:41:12;100457.47;;;4.94;100.00
48563;BME280;34981;49.104;11.396;2023-11-18T10:43:40;100466.44;;;5.04;100.00
48563;BME280;34981;49.104;11.396;2023-11-18T10:46:09;100462.41;;;5.09;100.00
48563;BME280;34981;49.104;11.396;2023-11-18T10:48:44;100445.06;;;5.15;100.00
48563;BME280;34981;49.104;11.396;2023-11-18T10:51:12;100443.81;;;5.19;100.00
48563;BME280;34981;49.104;11.396;2023-11-18T10:53:40;100411.63;;;5.11;100.00
48563;BME280;34981;49.104;11.396;2023-11-18T10:56:16;100368.56;;;5.04;100.00
48563;BME280;34981;49.104;11.396;2023-11-18T10:58:43;100335.88;;;5.02;100.00
48563;BME280;34981;49.104;11.396;2023-11-18T11:01:12;100319.88;;;5.02;100.00
48563;BME280;34981;49.104;11.396;2023-11-18T11:03:54;100286.28;;;5.00;100.00
48563;BME280;34981;49.104;11.396;2023-11-18T11:06:28;100254.41;;;4.98;100.00
48563;BME280;34981;49.104;11.396;2023-11-18T11:08:57;100245.56;;;4.98;100.00
48563;BME280;34981;49.104;11.396;2023-11-18T11:11:33;100234.66;;;5.01;100.00
48563;BME280;34981;49.104;11.396;2023-11-18T11:14:04;100210.41;;;5.04;100.00
48563;BME280;34981;49.104;11.396;2023-11-18T11:16:36;100197.88;;;5.04;100.00
48563;BME280;34981;49.104;11.396;2023-11-18T11:19:05;100175.19;;;5.10;100.00
48563;BME280;34981;49.104;11.396;2023-11-18T11:21:37;100170.06;;;5.18;100.00
48563;BME280;34981;49.104;11.396;2023-11-18T11:24:11;100144.91;;;5.21;100.00
48563;BME280;34981;49.104;11.396;2023-11-18T11:27:32;100137.50;;;5.24;100.00
48563;BME280;34981;49.104;11.396;2023-11-18T11:29:45;100100.41;;;5.21;100.00
48563;BME280;34981;49.104;11.396;2023-11-18T11:34:53;100064.03;;;5.20;100.00
48563;BME280;34981;49.104;11.396;2023-11-18T11:37:22;100039.06;;;5.21;100.00
48563;BME280;34981;49.104;11.396;2023-11-18T11:39:50;100027.41;;;5.22;100.00
48563;BME280;34981;49.104;11.396;2023-11-18T11:42:20;100019.16;;;5.25;100.00
48563;BME280;34981;49.104;11.396;2023-11-18T11:44:49;100007.63;;;5.25;100.00
48563;BME280;34981;49.104;11.396;2023-11-18T11:47:20;99998.38;;;5.29;100.00
48563;BME280;34981;49.104;11.396;2023-11-18T11:49:55;99981.25;;;5.31;100.00
48563;BME280;34981;49.104;11.396;2023-11-18T11:52:29;99970.03;;;5.37;100.00
48563;BME280;34981;49.104;11.396;2023-11-18T11:57:31;99914.13;;;5.36;100.00
48563;BME280;34981;49.104;11.396;2023-11-18T12:00:08;99878.19;;;5.30;100.00
48563;BME280;34981;49.104;11.396;2023-11-18T12:02:49;99848.41;;;5.35;100.00
48563;BME280;34981;49.104;11.396;2023-11-18T12:05:17;99822.56;;;5.35;100.00
48563;BME280;34981;49.104;11.396;2023-11-18T12:07:51;99790.28;;;5.38;100.00
48563;BME280;34981;49.104;11.396;2023-11-18T12:10:19;99771.00;;;5.44;100.00
48563;BME280;34981;49.104;11.396;2023-11-18T12:12:49;99734.38;;;5.46;100.00
48563;BME280;34981;49.104;11.396;2023-11-18T12:15:47;99698.97;;;5.44;100.00
48563;BME280;34981;49.104;11.396;2023-11-18T12:20:41;99615.88;;;5.39;100.00
48563;BME280;34981;49.104;11.396;2023-11-18T12:23:15;99560.97;;;5.37;100.00
48563;BME280;34981;49.104;11.396;2023-11-18T12:25:43;99530.38;;;5.31;100.00
48563;BME280;34981;49.104;11.396;2023-11-18T12:28:15;99496.56;;;5.32;100.00
48563;BME280;34981;49.104;11.396;2023-11-18T12:30:44;99456.31;;;5.25;100.00
48563;BME280;34981;49.104;11.396;2023-11-18T12:33:19;99429.16;;;5.30;100.00
48563;BME280;34981;49.104;11.396;2023-11-18T12:40:54;99352.59;;;5.48;100.00
48563;BME280;34981;49.104;11.396;2023-11-18T12:43:33;99319.09;;;5.45;100.00
48563;BME280;34981;49.104;11.396;2023-11-18T12:48:34;99225.81;;;5.36;100.00
48563;BME280;34981;49.104;11.396;2023-11-18T12:51:07;99201.84;;;5.44;100.00
48563;BME280;34981;49.104;11.396;2023-11-18T12:53:37;99178.19;;;5.49;100.00
48563;BME280;34981;49.104;11.396;2023-11-18T12:56:05;99150.06;;;5.55;100.00
48563;BME280;34981;49.104;11.396;2023-11-18T12:58:32;99125.53;;;5.59;100.00
48563;BME280;34981;49.104;11.396;2023-11-18T13:01:00;99094.47;;;5.50;100.00
48563;BME280;34981;49.104;11.396;2023-11-18T13:03:29;99070.31;;;5.52;100.00
48563;BME280;34981;49.104;11.396;2023-11-18T13:05:57;99041.94;;;5.51;100.00
48563;BME280;34981;49.104;11.396;2023-11-18T13:08:24;99011.91;;;5.48;100.00
48563;BME280;34981;49.104;11.396;2023-11-18T13:10:51;98986.59;;;5.53;100.00
48563;BME280;34981;49.104;11.396;2023-11-18T13:13:19;98975.78;;;5.70;100.00
48563;BME280;34981;49.104;11.396;2023-11-18T13:15:46;98943.78;;;5.62;100.00
48563;BME280;34981;49.104;11.396;2023-11-18T13:18:13;98921.22;;;5.65;100.00
48563;BME280;34981;49.104;11.396;2023-11-18T13:20:41;98897.22;;;5.65;100.00
48563;BME280;34981;49.104;11.396;2023-11-18T13:23:20;98864.50;;;5.63;100.00
48563;BME280;34981;49.104;11.396;2023-11-18T13:25:47;98853.84;;;5.63;100.00